sensor_id;sensor_type;location;lat;lon;timestamp;P1;durP1;ratioP1;P2;durP2;ratioP2
60665;SDS011;59128;44.642;21.188;2024-03-25T00:01:28;45.65;;;36.35;;
60665;SDS011;59128;44.642;21.188;2024-03-25T00:03:54;46.80;;;35.67;;
60665;SDS011;59128;44.642;21.188;2024-03-25T00:06:20;44.13;;;32.95;;
60665;SDS011;59128;44.642;21.188;2024-03-25T00:08:46;43.20;;;33.73;;
60665;SDS011;59128;44.642;21.188;2024-03-25T00:11:12;44.92;;;35.60;;
60665;SDS011;59128;44.642;21.188;2024-03-25T00:13:38;50.70;;;39.25;;
60665;SDS011;59128;44.642;21.188;2024-03-25T00:16:05;54.72;;;42.17;;
60665;SDS011;59128;44.642;21.188;2024-03-25T00:18:32;55.67;;;42.13;;
60665;SDS011;59128;44.642;21.188;2024-03-25T00:20:58;58.70;;;44.40;;
60665;SDS011;59128;44.642;21.188;2024-03-25T00:23:24;71.85;;;50.78;;
60665;SDS011;59128;44.642;21.188;2024-03-25T00:25:50;60.50;;;45.13;;
60665;SDS011;59128;44.642;21.188;2024-03-25T00:28:17;50.63;;;38.88;;
60665;SDS011;59128;44.642;21.188;2024-03-25T00:30:44;45.75;;;35.67;;
60665;SDS011;59128;44.642;21.188;2024-03-25T00:33:10;48.30;;;37.75;;
60665;SDS011;59128;44.642;21.188;2024-03-25T00:35:37;50.47;;;38.33;;
60665;SDS011;59128;44.642;21.188;2024-03-25T00:38:03;48.58;;;37.63;;
60665;SDS011;59128;44.642;21.188;2024-03-25T00:40:29;47.55;;;37.30;;
60665;SDS011;59128;44.642;21.188;2024-03-25T00:42:55;53.05;;;37.83;;
60665;SDS011;59128;44.642;21.188;2024-03-25T00:45:22;53.92;;;40.00;;
60665;SDS011;59128;44.642;21.188;2024-03-25T00:47:50;55.05;;;39.42;;
60665;SDS011;59128;44.642;21.188;2024-03-25T00:50:17;58.30;;;41.92;;
60665;SDS011;59128;44.642;21.188;2024-03-25T00:52:43;62.70;;;43.90;;
60665;SDS011;59128;44.642;21.188;2024-03-25T00:55:09;56.60;;;39.17;;
60665;SDS011;59128;44.642;21.188;2024-03-25T00:57:35;58.67;;;39.65;;
60665;SDS011;59128;44.642;21.188;2024-03-25T01:00:01;57.58;;;39.00;;
60665;SDS011;59128;44.642;21.188;2024-03-25T01:02:29;57.65;;;39.17;;
60665;SDS011;59128;44.642;21.188;2024-03-25T01:04:56;54.00;;;37.33;;
60665;SDS011;59128;44.642;21.188;2024-03-25T01:07:22;49.03;;;34.90;;
60665;SDS011;59128;44.642;21.188;2024-03-25T01:09:48;46.50;;;35.10;;
60665;SDS011;59128;44.642;21.188;2024-03-25T01:12:14;38.55;;;30.70;;
60665;SDS011;59128;44.642;21.188;2024-03-25T01:14:40;35.50;;;28.15;;
60665;SDS011;59128;44.642;21.188;2024-03-25T01:17:07;34.67;;;28.67;;
60665;SDS011;59128;44.642;21.188;2024-03-25T01:19:33;34.00;;;27.77;;
60665;SDS011;59128;44.642;21.188;2024-03-25T01:21:59;33.30;;;27.20;;
60665;SDS011;59128;44.642;21.188;2024-03-25T01:24:25;32.15;;;26.83;;
60665;SDS011;59128;44.642;21.188;2024-03-25T01:26:51;32.20;;;26.63;;
60665;SDS011;59128;44.642;21.188;2024-03-25T01:29:17;33.63;;;27.52;;
60665;SDS011;59128;44.642;21.188;2024-03-25T01:31:44;33.83;;;28.08;;
60665;SDS011;59128;44.642;21.188;2024-03-25T01:34:10;31.80;;;26.08;;
60665;SDS011;59128;44.642;21.188;2024-03-25T01:36:36;31.58;;;25.75;;
60665;SDS011;59128;44.642;21.188;2024-03-25T01:39:02;29.63;;;24.40;;
60665;SDS011;59128;44.642;21.188;2024-03-25T01:41:30;26.15;;;22.40;;
60665;SDS011;59128;44.642;21.188;2024-03-25T01:43:59;25.67;;;22.15;;
60665;SDS011;59128;44.642;21.188;2024-03-25T01:46:25;24.88;;;21.35;;
60665;SDS011;59128;44.642;21.188;2024-03-25T01:48:51;23.00;;;20.23;;
60665;SDS011;59128;44.642;21.188;2024-03-25T01:51:18;25.45;;;22.40;;
60665;SDS011;59128;44.642;21.188;2024-03-25T01:53:46;30.02;;;25.60;;
60665;SDS011;59128;44.642;21.188;2024-03-25T01:56:12;30.33;;;25.85;;
60665;SDS011;59128;44.642;21.188;2024-03-25T01:58:39;32.72;;;26.65;;
60665;SDS011;59128;44.642;21.188;2024-03-25T02:01:05;36.05;;;28.38;;
60665;SDS011;59128;44.642;21.188;2024-03-25T02:03:35;40.97;;;30.73;;
60665;SDS011;59128;44.642;21.188;2024-03-25T02:06:03;41.50;;;30.60;;
60665;SDS011;59128;44.642;21.188;2024-03-25T02:08:34;35.72;;;26.58;;
60665;SDS011;59128;44.642;21.188;2024-03-25T02:11:00;31.20;;;25.30;;
60665;SDS011;59128;44.642;21.188;2024-03-25T02:13:27;34.05;;;26.40;;
60665;SDS011;59128;44.642;21.188;2024-03-25T02:15:53;37.88;;;26.55;;
60665;SDS011;59128;44.642;21.188;2024-03-25T02:18:20;35.67;;;27.02;;
60665;SDS011;59128;44.642;21.188;2024-03-25T02:20:46;34.58;;;27.50;;
60665;SDS011;59128;44.642;21.188;2024-03-25T02:23:12;33.90;;;27.00;;
60665;SDS011;59128;44.642;21.188;2024-03-25T02:25:39;32.92;;;26.52;;
60665;SDS011;59128;44.642;21.188;2024-03-25T02:28:06;31.15;;;24.95;;
60665;SDS011;59128;44.642;21.188;2024-03-25T02:30:32;30.40;;;24.40;;
60665;SDS011;59128;44.642;21.188;2024-03-25T02:32:58;28.87;;;23.83;;
60665;SDS011;59128;44.642;21.188;2024-03-25T02:35:25;29.77;;;24.73;;
60665;SDS011;59128;44.642;21.188;2024-03-25T02:37:52;36.65;;;28.63;;
60665;SDS011;59128;44.642;21.188;2024-03-25T02:40:18;37.40;;;28.73;;
60665;SDS011;59128;44.642;21.188;2024-03-25T02:42:45;36.10;;;27.80;;
60665;SDS011;59128;44.642;21.188;2024-03-25T02:45:12;35.90;;;27.23;;
60665;SDS011;59128;44.642;21.188;2024-03-25T02:47:38;36.58;;;28.08;;
60665;SDS011;59128;44.642;21.188;2024-03-25T02:50:04;39.13;;;28.65;;
60665;SDS011;59128;44.642;21.188;2024-03-25T02:52:30;43.05;;;30.98;;
60665;SDS011;59128;44.642;21.188;2024-03-25T02:54:56;43.67;;;32.30;;
60665;SDS011;59128;44.642;21.188;2024-03-25T02:57:22;43.13;;;32.00;;
60665;SDS011;59128;44.642;21.188;2024-03-25T02:59:48;40.72;;;31.13;;
60665;SDS011;59128;44.642;21.188;2024-03-25T03:02:14;39.60;;;30.80;;
60665;SDS011;59128;44.642;21.188;2024-03-25T03:04:41;40.95;;;30.85;;
60665;SDS011;59128;44.642;21.188;2024-03-25T03:07:07;38.20;;;29.42;;
60665;SDS011;59128;44.642;21.188;2024-03-25T03:09:33;36.83;;;28.83;;
60665;SDS011;59128;44.642;21.188;2024-03-25T03:11:59;33.70;;;27.27;;
60665;SDS011;59128;44.642;21.188;2024-03-25T03:14:25;35.92;;;28.50;;
60665;SDS011;59128;44.642;21.188;2024-03-25T03:16:51;32.43;;;26.00;;
60665;SDS011;59128;44.642;21.188;2024-03-25T03:19:23;33.47;;;27.43;;
60665;SDS011;59128;44.642;21.188;2024-03-25T03:21:49;31.90;;;26.25;;
60665;SDS011;59128;44.642;21.188;2024-03-25T03:24:15;32.55;;;25.50;;
60665;SDS011;59128;44.642;21.188;2024-03-25T03:26:41;31.98;;;25.63;;
60665;SDS011;59128;44.642;21.188;2024-03-25T03:29:07;28.30;;;23.23;;
60665;SDS011;59128;44.642;21.188;2024-03-25T03:31:33;28.95;;;23.63;;
60665;SDS011;59128;44.642;21.188;2024-03-25T03:33:59;26.92;;;22.60;;
60665;SDS011;59128;44.642;21.188;2024-03-25T03:36:26;26.53;;;22.90;;
60665;SDS011;59128;44.642;21.188;2024-03-25T03:38:52;27.92;;;22.23;;
60665;SDS011;59128;44.642;21.188;2024-03-25T03:41:18;30.73;;;24.92;;
60665;SDS011;59128;44.642;21.188;2024-03-25T03:43:44;28.40;;;22.67;;
60665;SDS011;59128;44.642;21.188;2024-03-25T03:46:10;26.80;;;22.65;;
60665;SDS011;59128;44.642;21.188;2024-03-25T03:48:36;28.73;;;23.37;;
60665;SDS011;59128;44.642;21.188;2024-03-25T03:51:06;32.10;;;26.70;;
60665;SDS011;59128;44.642;21.188;2024-03-25T03:53:33;31.33;;;25.65;;
60665;SDS011;59128;44.642;21.188;2024-03-25T03:56:02;28.27;;;22.98;;
60665;SDS011;59128;44.642;21.188;2024-03-25T03:58:32;26.92;;;23.30;;
60665;SDS011;59128;44.642;21.188;2024-03-25T04:00:58;27.02;;;22.98;;
60665;SDS011;59128;44.642;21.188;2024-03-25T04:03:24;28.00;;;23.50;;
60665;SDS011;59128;44.642;21.188;2024-03-25T04:05:50;28.63;;;23.52;;
60665;SDS011;59128;44.642;21.188;2024-03-25T04:08:16;29.98;;;24.55;;
60665;SDS011;59128;44.642;21.188;2024-03-25T04:10:43;29.85;;;24.08;;
60665;SDS011;59128;44.642;21.188;2024-03-25T04:13:09;29.83;;;25.20;;
60665;SDS011;59128;44.642;21.188;2024-03-25T04:15:38;29.87;;;24.97;;
60665;SDS011;59128;44.642;21.188;2024-03-25T04:18:05;32.40;;;26.00;;
60665;SDS011;59128;44.642;21.188;2024-03-25T04:20:38;30.67;;;25.42;;
60665;SDS011;59128;44.642;21.188;2024-03-25T04:23:04;32.33;;;25.95;;
60665;SDS011;59128;44.642;21.188;2024-03-25T04:25:32;30.70;;;23.92;;
60665;SDS011;59128;44.642;21.188;2024-03-25T04:27:58;31.55;;;24.88;;
60665;SDS011;59128;44.642;21.188;2024-03-25T04:30:25;33.30;;;26.15;;
60665;SDS011;59128;44.642;21.188;2024-03-25T04:32:51;33.33;;;27.00;;
60665;SDS011;59128;44.642;21.188;2024-03-25T04:35:17;33.22;;;27.58;;
60665;SDS011;59128;44.642;21.188;2024-03-25T04:37:43;31.98;;;25.50;;
60665;SDS011;59128;44.642;21.188;2024-03-25T04:40:09;30.27;;;24.85;;
60665;SDS011;59128;44.642;21.188;2024-03-25T04:42:35;29.33;;;23.92;;
60665;SDS011;59128;44.642;21.188;2024-03-25T04:45:01;30.38;;;24.83;;
60665;SDS011;59128;44.642;21.188;2024-03-25T04:47:27;29.77;;;24.50;;
60665;SDS011;59128;44.642;21.188;2024-03-25T04:49:54;29.27;;;23.92;;
60665;SDS011;59128;44.642;21.188;2024-03-25T04:52:20;30.47;;;25.33;;
60665;SDS011;59128;44.642;21.188;2024-03-25T04:54:48;31.92;;;25.48;;
60665;SDS011;59128;44.642;21.188;2024-03-25T04:57:14;33.78;;;25.98;;
60665;SDS011;59128;44.642;21.188;2024-03-25T04:59:40;30.63;;;25.58;;
60665;SDS011;59128;44.642;21.188;2024-03-25T05:02:06;31.05;;;25.88;;
60665;SDS011;59128;44.642;21.188;2024-03-25T05:04:33;33.35;;;26.63;;
60665;SDS011;59128;44.642;21.188;2024-03-25T05:06:59;34.00;;;27.23;;
60665;SDS011;59128;44.642;21.188;2024-03-25T05:09:25;33.13;;;27.33;;
60665;SDS011;59128;44.642;21.188;2024-03-25T05:11:51;31.08;;;26.23;;
60665;SDS011;59128;44.642;21.188;2024-03-25T05:14:17;32.78;;;27.70;;
60665;SDS011;59128;44.642;21.188;2024-03-25T05:16:43;31.73;;;27.80;;
60665;SDS011;59128;44.642;21.188;2024-03-25T05:19:09;31.17;;;27.75;;
60665;SDS011;59128;44.642;21.188;2024-03-25T05:21:35;33.27;;;29.67;;
60665;SDS011;59128;44.642;21.188;2024-03-25T05:24:01;32.85;;;29.35;;
60665;SDS011;59128;44.642;21.188;2024-03-25T05:26:27;34.15;;;28.50;;
60665;SDS011;59128;44.642;21.188;2024-03-25T05:28:54;31.50;;;26.57;;
60665;SDS011;59128;44.642;21.188;2024-03-25T05:31:20;31.33;;;27.08;;
60665;SDS011;59128;44.642;21.188;2024-03-25T05:33:46;28.73;;;24.47;;
60665;SDS011;59128;44.642;21.188;2024-03-25T05:36:12;31.58;;;27.55;;
60665;SDS011;59128;44.642;21.188;2024-03-25T05:38:38;29.02;;;25.02;;
60665;SDS011;59128;44.642;21.188;2024-03-25T05:41:05;30.08;;;25.00;;
60665;SDS011;59128;44.642;21.188;2024-03-25T05:43:31;28.43;;;23.67;;
60665;SDS011;59128;44.642;21.188;2024-03-25T05:45:57;29.63;;;24.33;;
60665;SDS011;59128;44.642;21.188;2024-03-25T05:48:26;29.58;;;24.98;;
60665;SDS011;59128;44.642;21.188;2024-03-25T05:53:26;31.05;;;24.55;;
60665;SDS011;59128;44.642;21.188;2024-03-25T05:55:52;31.43;;;25.40;;
60665;SDS011;59128;44.642;21.188;2024-03-25T05:58:18;33.50;;;26.63;;
60665;SDS011;59128;44.642;21.188;2024-03-25T06:00:48;39.53;;;31.08;;
60665;SDS011;59128;44.642;21.188;2024-03-25T06:03:14;41.38;;;32.75;;
60665;SDS011;59128;44.642;21.188;2024-03-25T06:05:40;36.75;;;29.23;;
60665;SDS011;59128;44.642;21.188;2024-03-25T06:08:07;37.65;;;29.38;;
60665;SDS011;59128;44.642;21.188;2024-03-25T06:10:41;40.58;;;30.55;;
60665;SDS011;59128;44.642;21.188;2024-03-25T06:13:07;41.65;;;33.92;;
60665;SDS011;59128;44.642;21.188;2024-03-25T06:15:33;40.17;;;32.67;;
60665;SDS011;59128;44.642;21.188;2024-03-25T06:17:59;35.80;;;28.30;;
60665;SDS011;59128;44.642;21.188;2024-03-25T06:20:25;36.92;;;28.83;;
60665;SDS011;59128;44.642;21.188;2024-03-25T06:22:51;28.48;;;23.70;;
60665;SDS011;59128;44.642;21.188;2024-03-25T06:25:17;29.17;;;22.92;;
60665;SDS011;59128;44.642;21.188;2024-03-25T06:27:43;27.33;;;23.33;;
60665;SDS011;59128;44.642;21.188;2024-03-25T06:30:09;28.35;;;22.98;;
60665;SDS011;59128;44.642;21.188;2024-03-25T06:32:54;30.58;;;24.67;;
60665;SDS011;59128;44.642;21.188;2024-03-25T06:35:39;28.05;;;24.25;;
60665;SDS011;59128;44.642;21.188;2024-03-25T06:38:05;30.20;;;24.35;;
60665;SDS011;59128;44.642;21.188;2024-03-25T06:40:31;29.17;;;23.20;;
60665;SDS011;59128;44.642;21.188;2024-03-25T06:42:57;26.27;;;22.73;;
60665;SDS011;59128;44.642;21.188;2024-03-25T06:45:23;25.88;;;21.83;;
60665;SDS011;59128;44.642;21.188;2024-03-25T06:47:49;26.42;;;22.13;;
60665;SDS011;59128;44.642;21.188;2024-03-25T06:50:15;30.88;;;26.02;;
60665;SDS011;59128;44.642;21.188;2024-03-25T06:52:41;26.42;;;22.25;;
60665;SDS011;59128;44.642;21.188;2024-03-25T06:55:07;25.42;;;21.15;;
60665;SDS011;59128;44.642;21.188;2024-03-25T06:57:33;27.42;;;21.70;;
60665;SDS011;59128;44.642;21.188;2024-03-25T06:59:59;20.17;;;17.77;;
60665;SDS011;59128;44.642;21.188;2024-03-25T07:02:25;19.13;;;16.70;;
60665;SDS011;59128;44.642;21.188;2024-03-25T07:04:52;22.15;;;17.88;;
60665;SDS011;59128;44.642;21.188;2024-03-25T07:07:18;22.87;;;18.90;;
60665;SDS011;59128;44.642;21.188;2024-03-25T07:09:44;22.63;;;18.27;;
60665;SDS011;59128;44.642;21.188;2024-03-25T07:12:10;22.00;;;19.00;;
60665;SDS011;59128;44.642;21.188;2024-03-25T07:14:36;20.65;;;18.35;;
60665;SDS011;59128;44.642;21.188;2024-03-25T07:17:02;30.40;;;27.20;;
60665;SDS011;59128;44.642;21.188;2024-03-25T07:19:28;123.32;;;110.90;;
60665;SDS011;59128;44.642;21.188;2024-03-25T07:21:54;60.17;;;54.63;;
60665;SDS011;59128;44.642;21.188;2024-03-25T07:24:20;18.95;;;16.52;;
60665;SDS011;59128;44.642;21.188;2024-03-25T07:26:46;17.23;;;15.38;;
60665;SDS011;59128;44.642;21.188;2024-03-25T07:29:13;15.65;;;13.25;;
60665;SDS011;59128;44.642;21.188;2024-03-25T07:31:39;14.05;;;12.23;;
60665;SDS011;59128;44.642;21.188;2024-03-25T07:34:05;12.88;;;11.57;;
60665;SDS011;59128;44.642;21.188;2024-03-25T07:36:31;13.30;;;11.85;;
60665;SDS011;59128;44.642;21.188;2024-03-25T07:39:00;14.88;;;12.77;;
60665;SDS011;59128;44.642;21.188;2024-03-25T07:41:26;12.87;;;11.53;;
60665;SDS011;59128;44.642;21.188;2024-03-25T07:43:52;12.30;;;11.00;;
60665;SDS011;59128;44.642;21.188;2024-03-25T07:46:18;11.23;;;9.73;;
60665;SDS011;59128;44.642;21.188;2024-03-25T07:48:44;11.13;;;9.95;;
60665;SDS011;59128;44.642;21.188;2024-03-25T07:51:10;10.98;;;9.18;;
60665;SDS011;59128;44.642;21.188;2024-03-25T07:53:36;10.40;;;8.73;;
60665;SDS011;59128;44.642;21.188;2024-03-25T07:56:03;10.48;;;9.38;;
60665;SDS011;59128;44.642;21.188;2024-03-25T07:58:29;9.52;;;8.10;;
60665;SDS011;59128;44.642;21.188;2024-03-25T08:00:56;8.93;;;7.53;;
60665;SDS011;59128;44.642;21.188;2024-03-25T08:03:22;8.68;;;6.88;;
60665;SDS011;59128;44.642;21.188;2024-03-25T08:05:50;7.65;;;6.85;;
60665;SDS011;59128;44.642;21.188;2024-03-25T08:08:16;8.60;;;7.70;;
60665;SDS011;59128;44.642;21.188;2024-03-25T08:10:42;8.40;;;7.37;;
60665;SDS011;59128;44.642;21.188;2024-03-25T08:13:08;8.13;;;7.32;;
60665;SDS011;59128;44.642;21.188;2024-03-25T08:15:34;7.93;;;7.13;;
60665;SDS011;59128;44.642;21.188;2024-03-25T08:18:00;8.52;;;7.15;;
60665;SDS011;59128;44.642;21.188;2024-03-25T08:20:26;7.23;;;6.53;;
60665;SDS011;59128;44.642;21.188;2024-03-25T08:22:53;8.63;;;7.82;;
60665;SDS011;59128;44.642;21.188;2024-03-25T08:25:19;12.25;;;11.05;;
60665;SDS011;59128;44.642;21.188;2024-03-25T08:27:45;7.53;;;6.72;;
60665;SDS011;59128;44.642;21.188;2024-03-25T08:30:11;53.97;;;34.87;;
60665;SDS011;59128;44.642;21.188;2024-03-25T08:32:37;7.10;;;6.30;;
60665;SDS011;59128;44.642;21.188;2024-03-25T08:35:03;38.20;;;26.13;;
60665;SDS011;59128;44.642;21.188;2024-03-25T08:37:29;26.77;;;19.40;;
60665;SDS011;59128;44.642;21.188;2024-03-25T08:39:55;9.53;;;8.20;;
60665;SDS011;59128;44.642;21.188;2024-03-25T08:42:21;19.45;;;15.60;;
60665;SDS011;59128;44.642;21.188;2024-03-25T08:44:47;9.15;;;7.72;;
60665;SDS011;59128;44.642;21.188;2024-03-25T08:47:13;9.10;;;7.63;;
60665;SDS011;59128;44.642;21.188;2024-03-25T08:49:39;7.30;;;6.45;;
60665;SDS011;59128;44.642;21.188;2024-03-25T08:52:05;6.28;;;5.78;;
60665;SDS011;59128;44.642;21.188;2024-03-25T08:54:31;7.10;;;5.43;;
60665;SDS011;59128;44.642;21.188;2024-03-25T08:56:58;7.13;;;5.68;;
60665;SDS011;59128;44.642;21.188;2024-03-25T08:59:24;6.55;;;5.38;;
60665;SDS011;59128;44.642;21.188;2024-03-25T09:01:50;10.87;;;8.57;;
60665;SDS011;59128;44.642;21.188;2024-03-25T09:04:16;11.43;;;10.23;;
60665;SDS011;59128;44.642;21.188;2024-03-25T09:06:42;16.33;;;12.57;;
60665;SDS011;59128;44.642;21.188;2024-03-25T09:09:08;22.58;;;16.30;;
60665;SDS011;59128;44.642;21.188;2024-03-25T09:11:53;9.23;;;7.72;;
60665;SDS011;59128;44.642;21.188;2024-03-25T09:14:19;7.38;;;6.05;;
60665;SDS011;59128;44.642;21.188;2024-03-25T09:16:45;6.88;;;6.03;;
60665;SDS011;59128;44.642;21.188;2024-03-25T09:19:11;7.75;;;5.40;;
60665;SDS011;59128;44.642;21.188;2024-03-25T09:21:37;6.82;;;6.15;;
60665;SDS011;59128;44.642;21.188;2024-03-25T09:24:03;7.05;;;6.35;;
60665;SDS011;59128;44.642;21.188;2024-03-25T09:26:29;11.05;;;5.93;;
60665;SDS011;59128;44.642;21.188;2024-03-25T09:28:55;6.25;;;5.10;;
60665;SDS011;59128;44.642;21.188;2024-03-25T09:31:21;7.03;;;5.80;;
60665;SDS011;59128;44.642;21.188;2024-03-25T09:33:47;5.15;;;4.63;;
60665;SDS011;59128;44.642;21.188;2024-03-25T09:36:13;5.63;;;5.03;;
60665;SDS011;59128;44.642;21.188;2024-03-25T09:38:39;6.03;;;4.28;;
60665;SDS011;59128;44.642;21.188;2024-03-25T09:41:08;4.80;;;4.35;;
60665;SDS011;59128;44.642;21.188;2024-03-25T09:43:43;6.30;;;5.70;;
60665;SDS011;59128;44.642;21.188;2024-03-25T09:46:13;5.55;;;5.00;;
60665;SDS011;59128;44.642;21.188;2024-03-25T09:48:40;5.85;;;5.28;;
60665;SDS011;59128;44.642;21.188;2024-03-25T09:51:07;4.78;;;3.63;;
60665;SDS011;59128;44.642;21.188;2024-03-25T09:53:34;4.60;;;4.07;;
60665;SDS011;59128;44.642;21.188;2024-03-25T09:56:00;4.90;;;4.35;;
60665;SDS011;59128;44.642;21.188;2024-03-25T09:58:27;5.10;;;4.05;;
60665;SDS011;59128;44.642;21.188;2024-03-25T10:00:53;3.37;;;3.07;;
60665;SDS011;59128;44.642;21.188;2024-03-25T10:03:20;5.20;;;2.72;;
60665;SDS011;59128;44.642;21.188;2024-03-25T10:05:46;2.80;;;2.33;;
60665;SDS011;59128;44.642;21.188;2024-03-25T10:08:12;3.50;;;3.03;;
60665;SDS011;59128;44.642;21.188;2024-03-25T10:10:38;2.25;;;1.80;;
60665;SDS011;59128;44.642;21.188;2024-03-25T10:13:05;3.78;;;2.00;;
60665;SDS011;59128;44.642;21.188;2024-03-25T10:15:32;2.67;;;2.10;;
60665;SDS011;59128;44.642;21.188;2024-03-25T10:17:58;2.67;;;1.90;;
60665;SDS011;59128;44.642;21.188;2024-03-25T10:20:24;1.90;;;1.40;;
60665;SDS011;59128;44.642;21.188;2024-03-25T10:22:50;2.45;;;2.00;;
60665;SDS011;59128;44.642;21.188;2024-03-25T10:25:29;3.25;;;2.10;;
60665;SDS011;59128;44.642;21.188;2024-03-25T10:27:56;3.85;;;1.75;;
60665;SDS011;59128;44.642;21.188;2024-03-25T10:30:22;2.20;;;1.60;;
60665;SDS011;59128;44.642;21.188;2024-03-25T10:32:58;2.10;;;1.90;;
60665;SDS011;59128;44.642;21.188;2024-03-25T10:35:28;3.22;;;1.50;;
60665;SDS011;59128;44.642;21.188;2024-03-25T10:38:04;2.42;;;1.50;;
60665;SDS011;59128;44.642;21.188;2024-03-25T10:40:31;2.72;;;2.17;;
60665;SDS011;59128;44.642;21.188;2024-03-25T10:43:05;3.60;;;1.50;;
60665;SDS011;59128;44.642;21.188;2024-03-25T10:45:33;3.00;;;2.13;;
60665;SDS011;59128;44.642;21.188;2024-03-25T10:48:08;2.92;;;2.28;;
60665;SDS011;59128;44.642;21.188;2024-03-25T10:50:36;1.90;;;1.70;;
60665;SDS011;59128;44.642;21.188;2024-03-25T10:53:04;3.70;;;1.80;;
60665;SDS011;59128;44.642;21.188;2024-03-25T10:55:30;1.70;;;1.60;;
60665;SDS011;59128;44.642;21.188;2024-03-25T10:57:58;3.72;;;1.70;;
60665;SDS011;59128;44.642;21.188;2024-03-25T11:00:25;2.63;;;1.67;;
60665;SDS011;59128;44.642;21.188;2024-03-25T11:02:51;2.42;;;1.80;;
60665;SDS011;59128;44.642;21.188;2024-03-25T11:05:18;1.55;;;1.30;;
60665;SDS011;59128;44.642;21.188;2024-03-25T11:07:44;2.10;;;1.10;;
60665;SDS011;59128;44.642;21.188;2024-03-25T11:10:11;1.50;;;1.20;;
60665;SDS011;59128;44.642;21.188;2024-03-25T11:12:41;1.50;;;1.38;;
60665;SDS011;59128;44.642;21.188;2024-03-25T11:15:08;1.63;;;1.52;;
60665;SDS011;59128;44.642;21.188;2024-03-25T11:17:35;2.08;;;1.40;;
60665;SDS011;59128;44.642;21.188;2024-03-25T11:22:33;2.30;;;2.10;;
60665;SDS011;59128;44.642;21.188;2024-03-25T11:25:06;1.85;;;1.50;;
60665;SDS011;59128;44.642;21.188;2024-03-25T11:27:33;2.73;;;1.77;;
60665;SDS011;59128;44.642;21.188;2024-03-25T11:30:02;3.63;;;2.10;;
60665;SDS011;59128;44.642;21.188;2024-03-25T11:32:29;3.38;;;2.60;;
60665;SDS011;59128;44.642;21.188;2024-03-25T11:34:55;3.15;;;2.20;;
60665;SDS011;59128;44.642;21.188;2024-03-25T11:37:21;2.05;;;1.77;;
60665;SDS011;59128;44.642;21.188;2024-03-25T11:39:48;3.78;;;2.22;;
60665;SDS011;59128;44.642;21.188;2024-03-25T11:42:14;7.80;;;3.90;;
60665;SDS011;59128;44.642;21.188;2024-03-25T11:44:40;4.55;;;3.58;;
60665;SDS011;59128;44.642;21.188;2024-03-25T11:47:08;3.80;;;2.78;;
60665;SDS011;59128;44.642;21.188;2024-03-25T11:49:36;3.35;;;2.47;;
60665;SDS011;59128;44.642;21.188;2024-03-25T11:52:02;2.60;;;1.95;;
60665;SDS011;59128;44.642;21.188;2024-03-25T11:54:28;2.53;;;2.20;;
60665;SDS011;59128;44.642;21.188;2024-03-25T11:56:54;4.07;;;3.03;;
60665;SDS011;59128;44.642;21.188;2024-03-25T11:59:21;2.85;;;2.53;;
60665;SDS011;59128;44.642;21.188;2024-03-25T12:01:47;3.60;;;3.10;;
60665;SDS011;59128;44.642;21.188;2024-03-25T12:04:17;3.20;;;2.70;;
60665;SDS011;59128;44.642;21.188;2024-03-25T12:06:43;3.03;;;2.72;;
60665;SDS011;59128;44.642;21.188;2024-03-25T12:09:10;3.10;;;2.35;;
60665;SDS011;59128;44.642;21.188;2024-03-25T12:11:55;2.80;;;1.90;;
60665;SDS011;59128;44.642;21.188;2024-03-25T12:14:22;3.20;;;2.90;;
60665;SDS011;59128;44.642;21.188;2024-03-25T12:16:48;3.75;;;3.10;;
60665;SDS011;59128;44.642;21.188;2024-03-25T12:19:15;4.15;;;1.80;;
60665;SDS011;59128;44.642;21.188;2024-03-25T12:21:43;4.67;;;2.00;;
60665;SDS011;59128;44.642;21.188;2024-03-25T12:24:11;2.20;;;1.60;;
60665;SDS011;59128;44.642;21.188;2024-03-25T12:26:37;4.17;;;2.30;;
60665;SDS011;59128;44.642;21.188;2024-03-25T12:29:03;5.38;;;3.15;;
60665;SDS011;59128;44.642;21.188;2024-03-25T12:31:29;4.60;;;3.70;;
60665;SDS011;59128;44.642;21.188;2024-03-25T12:33:55;4.60;;;3.85;;
60665;SDS011;59128;44.642;21.188;2024-03-25T12:36:21;6.97;;;4.25;;
60665;SDS011;59128;44.642;21.188;2024-03-25T12:38:54;5.53;;;4.10;;
60665;SDS011;59128;44.642;21.188;2024-03-25T12:41:22;5.03;;;2.65;;
60665;SDS011;59128;44.642;21.188;2024-03-25T12:43:49;4.13;;;3.10;;
60665;SDS011;59128;44.642;21.188;2024-03-25T12:46:15;5.93;;;4.43;;
60665;SDS011;59128;44.642;21.188;2024-03-25T12:48:41;6.20;;;3.63;;
60665;SDS011;59128;44.642;21.188;2024-03-25T12:51:14;3.33;;;2.15;;
60665;SDS011;59128;44.642;21.188;2024-03-25T12:53:40;8.13;;;2.83;;
60665;SDS011;59128;44.642;21.188;2024-03-25T12:56:07;8.35;;;2.35;;
60665;SDS011;59128;44.642;21.188;2024-03-25T12:58:33;4.13;;;2.22;;
60665;SDS011;59128;44.642;21.188;2024-03-25T13:00:59;5.07;;;2.30;;
60665;SDS011;59128;44.642;21.188;2024-03-25T13:03:25;1.90;;;1.70;;
60665;SDS011;59128;44.642;21.188;2024-03-25T13:05:51;2.10;;;1.50;;
60665;SDS011;59128;44.642;21.188;2024-03-25T13:08:19;1.90;;;1.15;;
60665;SDS011;59128;44.642;21.188;2024-03-25T13:10:45;0.98;;;0.70;;
60665;SDS011;59128;44.642;21.188;2024-03-25T13:13:11;1.20;;;0.80;;
60665;SDS011;59128;44.642;21.188;2024-03-25T13:15:37;0.70;;;0.70;;
60665;SDS011;59128;44.642;21.188;2024-03-25T13:18:03;2.25;;;2.00;;
60665;SDS011;59128;44.642;21.188;2024-03-25T13:20:36;3.78;;;3.35;;
60665;SDS011;59128;44.642;21.188;2024-03-25T13:23:02;3.80;;;3.05;;
60665;SDS011;59128;44.642;21.188;2024-03-25T13:25:28;2.40;;;1.95;;
60665;SDS011;59128;44.642;21.188;2024-03-25T13:27:54;4.10;;;2.53;;
60665;SDS011;59128;44.642;21.188;2024-03-25T13:30:20;2.08;;;1.50;;
60665;SDS011;59128;44.642;21.188;2024-03-25T13:32:49;1.50;;;1.35;;
60665;SDS011;59128;44.642;21.188;2024-03-25T13:38:05;2.60;;;2.20;;
60665;SDS011;59128;44.642;21.188;2024-03-25T13:40:31;3.60;;;3.10;;
60665;SDS011;59128;44.642;21.188;2024-03-25T13:42:57;4.80;;;2.95;;
60665;SDS011;59128;44.642;21.188;2024-03-25T13:45:23;5.38;;;3.75;;
60665;SDS011;59128;44.642;21.188;2024-03-25T13:47:50;5.32;;;4.20;;
60665;SDS011;59128;44.642;21.188;2024-03-25T13:50:16;4.30;;;3.60;;
60665;SDS011;59128;44.642;21.188;2024-03-25T13:52:43;25.88;;;18.35;;
60665;SDS011;59128;44.642;21.188;2024-03-25T13:55:09;22.45;;;15.60;;
60665;SDS011;59128;44.642;21.188;2024-03-25T13:57:35;20.08;;;13.65;;
60665;SDS011;59128;44.642;21.188;2024-03-25T14:00:01;10.82;;;7.32;;
60665;SDS011;59128;44.642;21.188;2024-03-25T14:02:33;4.15;;;3.75;;
60665;SDS011;59128;44.642;21.188;2024-03-25T14:05:01;5.15;;;3.97;;
60665;SDS011;59128;44.642;21.188;2024-03-25T14:07:27;11.25;;;7.88;;
60665;SDS011;59128;44.642;21.188;2024-03-25T14:09:53;14.20;;;9.38;;
60665;SDS011;59128;44.642;21.188;2024-03-25T14:12:19;17.77;;;7.10;;
60665;SDS011;59128;44.642;21.188;2024-03-25T14:14:45;15.52;;;10.75;;
60665;SDS011;59128;44.642;21.188;2024-03-25T14:17:11;8.65;;;4.72;;
60665;SDS011;59128;44.642;21.188;2024-03-25T14:19:37;12.85;;;7.25;;
60665;SDS011;59128;44.642;21.188;2024-03-25T14:22:03;10.05;;;6.53;;
60665;SDS011;59128;44.642;21.188;2024-03-25T14:24:29;10.07;;;5.90;;